createdAt,value
2018-04-26T00:00:13.876Z,101013.75
2018-04-26T00:01:16.985Z,101011.20
2018-04-26T00:02:20.105Z,101013.02
2018-04-26T00:03:23.462Z,101015.36
2018-04-26T00:04:26.568Z,101014.15
2018-04-26T00:05:29.632Z,101011.12
2018-04-26T00:06:32.829Z,101020.99
2018-04-26T00:07:36.200Z,101017.05
2018-04-26T00:08:39.247Z,101017.54
2018-04-26T00:09:42.351Z,101018.55
2018-04-26T00:10:45.451Z,101011.52
2018-04-26T00:11:48.530Z,101011.57
2018-04-26T00:12:51.588Z,101011.15
2018-04-26T00:13:54.800Z,101017.39
2018-04-26T00:14:58.918Z,101009.97
2018-04-26T00:16:02.193Z,101013.61
2018-04-26T00:17:05.473Z,101009.67
2018-04-26T00:18:08.541Z,101012.81
2018-04-26T00:19:11.567Z,101012.91
2018-04-26T00:20:14.601Z,101016.55
2018-04-26T00:21:17.771Z,101014.85
2018-04-26T00:22:20.975Z,101017.58
2018-04-26T00:23:24.002Z,101019.42
2018-04-26T00:24:27.116Z,101021.73
2018-04-26T00:25:30.271Z,101017.30
2018-04-26T00:26:33.347Z,101016.45
2018-04-26T00:27:36.701Z,101017.03
2018-04-26T00:28:39.840Z,101019.70
2018-04-26T00:29:43.124Z,101017.03
2018-04-26T00:30:46.314Z,101017.94
2018-04-26T00:31:49.370Z,101015.28
2018-04-26T00:32:52.684Z,101018.48
2018-04-26T00:33:55.742Z,101021.64
2018-04-26T00:34:58.868Z,101019.03
2018-04-26T00:36:02.029Z,101011.61
2018-04-26T00:37:05.109Z,101012.94
2018-04-26T00:38:08.301Z,101013.55
2018-04-26T00:39:11.419Z,101015.30
2018-04-26T00:40:14.534Z,101020.79
2018-04-26T00:41:17.715Z,101017.27
2018-04-26T00:42:20.962Z,101013.81
2018-04-26T00:43:24.130Z,101024.06
2018-04-26T00:44:27.235Z,101018.30
2018-04-26T00:45:30.379Z,101012.48
2018-04-26T00:46:33.566Z,101016.16
2018-04-26T00:47:36.642Z,101017.13
2018-04-26T00:48:39.793Z,101015.84
2018-04-26T00:49:42.895Z,101014.16
2018-04-26T00:50:46.026Z,101024.05
2018-04-26T00:52:01.131Z,101022.78
2018-04-26T00:53:04.166Z,101020.88
2018-04-26T00:54:07.244Z,101028.02
2018-04-26T00:55:10.294Z,101022.78
2018-04-26T00:56:13.344Z,101025.93
2018-04-26T00:57:16.401Z,101021.98
2018-04-26T00:58:19.518Z,101026.41
2018-04-26T00:59:22.654Z,101025.02
2018-04-26T01:00:25.740Z,101024.87
2018-04-26T01:01:28.767Z,101019.91
2018-04-26T01:02:31.911Z,101024.59
2018-04-26T01:03:34.962Z,101014.67
2018-04-26T01:04:38.048Z,101018.88
2018-04-26T01:05:41.121Z,101018.18
2018-04-26T01:06:44.435Z,101024.09
2018-04-26T01:07:47.531Z,101019.81
2018-04-26T01:08:50.636Z,101023.55
2018-04-26T01:09:53.877Z,101022.42
2018-04-26T01:10:57.175Z,101022.58
2018-04-26T01:12:00.310Z,101023.20
2018-04-26T01:13:03.406Z,101020.36
2018-04-26T01:14:06.437Z,101015.72
2018-04-26T01:15:10.573Z,101019.59
2018-04-26T01:16:13.628Z,101023.48
2018-04-26T01:17:16.812Z,101021.11
2018-04-26T01:18:20.020Z,101016.41
2018-04-26T01:19:23.162Z,101021.59
2018-04-26T01:20:26.259Z,101018.80
2018-04-26T01:21:29.316Z,101014.32
2018-04-26T01:22:32.550Z,101019.50
2018-04-26T01:23:35.666Z,101016.34
2018-04-26T01:24:38.800Z,101022.47
2018-04-26T01:25:41.897Z,101020.56
2018-04-26T01:26:45.054Z,101020.92
2018-04-26T01:27:48.407Z,101020.37
2018-04-26T01:28:51.531Z,101015.38
2018-04-26T01:29:54.776Z,101016.16
2018-04-26T01:30:57.834Z,101014.77
2018-04-26T01:32:00.887Z,101022.70
2018-04-26T01:33:04.069Z,101014.13
2018-04-26T01:34:07.132Z,101022.97
2018-04-26T01:35:10.185Z,101015.81
2018-04-26T01:36:25.090Z,101008.99
2018-04-26T01:37:39.786Z,101011.45
2018-04-26T01:38:42.883Z,101011.19
2018-04-26T01:39:45.995Z,101009.76
2018-04-26T01:40:49.035Z,101007.88
2018-04-26T01:41:52.312Z,101007.81
2018-04-26T01:42:55.394Z,101009.52
2018-04-26T01:43:58.595Z,101012.18
2018-04-26T01:45:01.659Z,101006.27
2018-04-26T01:46:04.756Z,101007.96
2018-04-26T01:47:07.907Z,101006.98
2018-04-26T01:48:11.062Z,101009.23
2018-04-26T01:49:14.153Z,101005.14
2018-04-26T01:50:17.393Z,101007.05
2018-04-26T01:51:20.427Z,101008.33
2018-04-26T01:52:23.586Z,101008.72
2018-04-26T01:53:26.649Z,101010.89
2018-04-26T01:54:29.771Z,101005.92
2018-04-26T01:55:32.984Z,101003.32
2018-04-26T01:56:36.312Z,101002.83
2018-04-26T01:57:39.422Z,101006.84
2018-04-26T01:58:42.458Z,101009.50
2018-04-26T01:59:45.571Z,101005.50
2018-04-26T02:00:48.605Z,101008.59
2018-04-26T02:01:51.688Z,101007.26
2018-04-26T02:02:55.012Z,101005.02
2018-04-26T02:03:58.107Z,101002.77
2018-04-26T02:05:01.195Z,101010.77
2018-04-26T02:06:04.228Z,101010.77
2018-04-26T02:07:07.336Z,101004.59
2018-04-26T02:08:10.422Z,101015.75
2018-04-26T02:09:13.488Z,101010.84
2018-04-26T02:10:16.672Z,101014.05
2018-04-26T02:11:19.957Z,101013.72
2018-04-26T02:12:22.995Z,101012.02
2018-04-26T02:13:26.199Z,101016.52
2018-04-26T02:14:29.255Z,101018.33
2018-04-26T02:15:32.690Z,101011.33
2018-04-26T02:16:35.743Z,101016.66
2018-04-26T02:17:38.869Z,101014.00
2018-04-26T02:18:41.947Z,101015.66
2018-04-26T02:19:44.979Z,101013.00
2018-04-26T02:20:48.038Z,101010.75
2018-04-26T02:21:51.120Z,101013.78
2018-04-26T02:22:54.159Z,101014.69
2018-04-26T02:23:57.315Z,101009.36
2018-04-26T02:25:00.505Z,101013.78
2018-04-26T02:26:03.534Z,101012.94
2018-04-26T02:27:06.619Z,101016.02
2018-04-26T02:28:09.743Z,101010.27
2018-04-26T02:29:12.824Z,101018.27
2018-04-26T02:30:15.911Z,101019.60
2018-04-26T02:31:19.106Z,101013.78
2018-04-26T02:32:22.153Z,101016.02
2018-04-26T02:33:25.181Z,101017.84
2018-04-26T02:34:28.558Z,101017.36
2018-04-26T02:35:31.632Z,101020.45
2018-04-26T02:36:34.728Z,101019.11
2018-04-26T02:37:37.797Z,101020.03
2018-04-26T02:38:40.853Z,101024.03
2018-04-26T02:39:43.996Z,101016.45
2018-04-26T02:40:47.067Z,101023.97
2018-04-26T02:41:50.171Z,101019.97
2018-04-26T02:42:53.223Z,101020.45
2018-04-26T02:43:56.361Z,101017.72
2018-04-26T02:44:59.462Z,101017.72
2018-04-26T02:46:02.640Z,101019.97
2018-04-26T02:47:05.746Z,101016.45
2018-04-26T02:48:08.944Z,101016.94
2018-04-26T02:49:12.234Z,101013.42
2018-04-26T02:50:15.403Z,101020.18
2018-04-26T02:51:18.554Z,101013.15
2018-04-26T02:52:21.582Z,101017.16
2018-04-26T02:53:24.620Z,101016.37
2018-04-26T02:54:27.659Z,101015.94
2018-04-26T02:55:30.803Z,101012.36
2018-04-26T02:56:33.844Z,101008.84
2018-04-26T02:57:36.979Z,101015.45
2018-04-26T02:58:40.081Z,101011.45
2018-04-26T02:59:43.118Z,101018.48
2018-04-26T03:00:46.291Z,101014.97
2018-04-26T03:01:49.449Z,101018.48
2018-04-26T03:02:52.536Z,101016.24
2018-04-26T03:03:55.656Z,101016.57
2018-04-26T03:04:58.654Z,101019.66
2018-04-26T03:06:01.905Z,101013.09
2018-04-26T03:07:05.084Z,101014.55
2018-04-26T03:08:08.190Z,101021.43
2018-04-26T03:09:11.210Z,101013.22
2018-04-26T03:10:14.269Z,101014.73
2018-04-26T03:11:17.376Z,101004.65
2018-04-26T03:12:20.478Z,101011.44
2018-04-26T03:13:23.535Z,101006.16
2018-04-26T03:14:26.664Z,101009.32
2018-04-26T03:15:29.797Z,101009.32
2018-04-26T03:16:33.979Z,101009.32
2018-04-26T03:17:37.088Z,101005.41
2018-04-26T03:18:40.296Z,101007.17
2018-04-26T03:19:43.338Z,100999.23
2018-04-26T03:20:46.697Z,101006.75
2018-04-26T03:21:50.023Z,101013.41
2018-04-26T03:22:53.311Z,101008.62
2018-04-26T03:23:56.405Z,101010.87
2018-04-26T03:24:59.442Z,101014.92
2018-04-26T03:26:02.507Z,101017.59
2018-04-26T03:27:05.626Z,101020.78
2018-04-26T03:28:08.914Z,101015.84
2018-04-26T03:29:12.129Z,101016.36
2018-04-26T03:30:15.146Z,101023.45
2018-04-26T03:31:18.385Z,101028.36
2018-04-26T03:32:21.533Z,101025.27
2018-04-26T03:33:24.575Z,101027.08
2018-04-26T03:34:27.682Z,101024.05
2018-04-26T03:35:31.186Z,101023.69
2018-04-26T03:36:34.207Z,101028.11
2018-04-26T03:37:37.395Z,101031.78
2018-04-26T03:38:40.671Z,101029.66
2018-04-26T03:39:43.801Z,101027.11
2018-04-26T03:40:46.979Z,101030.33
2018-04-26T03:41:50.350Z,101026.12
2018-04-26T03:42:53.550Z,101034.39
2018-04-26T03:43:56.591Z,101035.14
2018-04-26T03:44:59.738Z,101034.09
2018-04-26T03:46:02.805Z,101031.60
2018-04-26T03:47:05.907Z,101035.75
2018-04-26T03:48:09.191Z,101035.75
2018-04-26T03:49:12.398Z,101037.51
2018-04-26T03:50:15.480Z,101029.84
2018-04-26T03:51:18.596Z,101039.96
2018-04-26T03:52:21.695Z,101040.23
2018-04-26T03:53:24.895Z,101039.20
2018-04-26T03:54:27.930Z,101036.91
2018-04-26T03:55:31.078Z,101037.23
2018-04-26T03:56:34.096Z,101039.84
2018-04-26T03:57:37.235Z,101040.27
2018-04-26T03:58:40.526Z,101042.56
2018-04-26T03:59:55.391Z,101036.81
2018-04-26T04:01:10.388Z,101037.99
2018-04-26T04:02:25.031Z,101036.93
2018-04-26T04:03:39.924Z,101045.26
2018-04-26T04:04:55.066Z,101031.45
2018-04-26T04:06:09.927Z,101041.47
2018-04-26T04:07:13.012Z,101043.08
2018-04-26T04:08:16.088Z,101035.41
2018-04-26T04:09:19.174Z,101039.29
2018-04-26T04:10:22.264Z,101036.63
2018-04-26T04:11:25.438Z,101038.44
2018-04-26T04:12:28.588Z,101038.56
2018-04-26T04:13:31.678Z,101042.66
2018-04-26T04:14:34.777Z,101044.47
2018-04-26T04:15:37.823Z,101046.34
2018-04-26T04:16:41.883Z,101052.64
2018-04-26T04:17:44.893Z,101049.34
2018-04-26T04:18:48.013Z,101048.58
2018-04-26T04:19:51.138Z,101051.36
2018-04-26T04:20:54.199Z,101054.94
2018-04-26T04:21:57.502Z,101049.66
2018-04-26T04:23:00.652Z,101053.66
2018-04-26T04:24:03.758Z,101051.42
2018-04-26T04:25:06.858Z,101061.59
2018-04-26T04:26:10.056Z,101065.91
2018-04-26T04:27:13.474Z,101063.03
2018-04-26T04:28:16.589Z,101063.30
2018-04-26T04:29:19.844Z,101064.94
2018-04-26T04:30:23.179Z,101065.21
2018-04-26T04:31:26.255Z,101068.19
2018-04-26T04:32:29.330Z,101070.22
2018-04-26T04:33:32.379Z,101074.09
2018-04-26T04:34:35.483Z,101075.70
2018-04-26T04:35:38.775Z,101073.46
2018-04-26T04:36:41.953Z,101073.03
2018-04-26T04:37:44.995Z,101073.61
2018-04-26T04:38:48.057Z,101079.00
2018-04-26T04:39:51.145Z,101072.55
2018-04-26T04:40:54.282Z,101074.00
2018-04-26T04:41:57.457Z,101082.11
2018-04-26T04:43:00.532Z,101091.11
2018-04-26T04:44:03.585Z,101085.95
2018-04-26T04:45:06.713Z,101088.70
2018-04-26T04:46:09.725Z,101089.19
2018-04-26T04:47:12.806Z,101083.02
2018-04-26T04:48:15.900Z,101085.73
2018-04-26T04:49:18.974Z,101091.92
2018-04-26T04:50:22.056Z,101087.07
2018-04-26T04:51:25.175Z,101098.64
2018-04-26T04:52:28.261Z,101089.80
2018-04-26T04:53:31.379Z,101095.06
2018-04-26T04:54:34.516Z,101091.55
2018-04-26T04:55:37.644Z,101095.00
2018-04-26T04:56:40.891Z,101093.12
2018-04-26T04:57:44.018Z,101093.89
2018-04-26T04:58:47.083Z,101107.16
2018-04-26T04:59:50.211Z,101099.05
2018-04-26T05:00:53.286Z,101099.31
2018-04-26T05:01:56.409Z,101102.77
2018-04-26T05:02:59.481Z,101096.38
2018-04-26T05:04:02.588Z,101095.84
2018-04-26T05:05:05.718Z,101098.78
2018-04-26T05:06:08.796Z,101098.66
2018-04-26T05:07:11.842Z,101102.09
2018-04-26T05:08:14.995Z,101106.94
2018-04-26T05:09:18.307Z,101093.97
2018-04-26T05:10:21.345Z,101104.48
2018-04-26T05:11:24.399Z,101092.00
2018-04-26T05:12:27.477Z,101101.27
2018-04-26T05:13:30.665Z,101099.94
2018-04-26T05:14:33.872Z,101106.12
2018-04-26T05:15:37.259Z,101112.79
2018-04-26T05:16:40.369Z,101109.70
2018-04-26T05:17:43.526Z,101106.12
2018-04-26T05:18:46.583Z,101118.55
2018-04-26T05:19:49.733Z,101110.97
2018-04-26T05:20:52.809Z,101114.97
2018-04-26T05:21:56.258Z,101115.39
2018-04-26T05:22:59.618Z,101114.48
2018-04-26T05:24:02.797Z,101116.73
2018-04-26T05:25:05.882Z,101113.16
2018-04-26T05:26:09.016Z,101114.48
2018-04-26T05:27:12.036Z,101120.21
2018-04-26T05:28:15.177Z,101123.30
2018-04-26T05:29:18.232Z,101124.73
2018-04-26T05:30:21.363Z,101119.39
2018-04-26T05:31:24.503Z,101124.30
2018-04-26T05:32:27.581Z,101122.54
2018-04-26T05:33:30.668Z,101128.63
2018-04-26T05:34:33.742Z,101130.48
2018-04-26T05:35:36.841Z,101130.39
2018-04-26T05:36:39.872Z,101134.39
2018-04-26T05:37:42.922Z,101126.39
2018-04-26T05:38:46.036Z,101129.63
2018-04-26T05:39:49.107Z,101124.73
2018-04-26T05:40:53.182Z,101126.48
2018-04-26T05:41:56.580Z,101126.81
2018-04-26T05:42:59.814Z,101132.09
2018-04-26T05:44:02.990Z,101133.36
2018-04-26T05:45:06.048Z,101132.03
2018-04-26T05:46:09.090Z,101131.55
2018-04-26T05:47:12.471Z,101136.88
2018-04-26T05:48:15.519Z,101140.03
2018-04-26T05:49:18.611Z,101137.78
2018-04-26T05:50:21.788Z,101142.69
2018-04-26T05:51:24.927Z,101147.17
2018-04-26T05:52:28.140Z,101151.17
2018-04-26T05:53:31.288Z,101152.94
2018-04-26T05:54:34.603Z,101149.84
2018-04-26T05:55:37.738Z,101150.75
2018-04-26T05:56:40.771Z,101152.94
2018-04-26T05:57:43.858Z,101154.20
2018-04-26T05:58:46.987Z,101156.30
2018-04-26T05:59:50.273Z,101153.09
2018-04-26T06:00:53.410Z,101164.52
2018-04-26T06:01:56.563Z,101158.21
2018-04-26T06:02:59.603Z,101164.28
2018-04-26T06:04:02.698Z,101156.98
2018-04-26T06:05:05.908Z,101166.62
2018-04-26T06:06:08.958Z,101162.08
2018-04-26T06:07:12.077Z,101172.90
2018-04-26T06:08:15.203Z,101158.45
2018-04-26T06:09:18.528Z,101167.17
2018-04-26T06:10:21.918Z,101173.69
2018-04-26T06:11:24.982Z,101170.48
2018-04-26T06:12:28.335Z,101164.58
2018-04-26T06:13:31.740Z,101165.30
2018-04-26T06:14:35.714Z,101174.48
2018-04-26T06:15:38.874Z,101168.67
2018-04-26T06:16:41.934Z,101173.03
2018-04-26T06:17:45.235Z,101172.89
2018-04-26T06:18:48.291Z,101174.16
2018-04-26T06:19:51.390Z,101178.10
2018-04-26T06:20:54.536Z,101180.71
2018-04-26T06:21:57.655Z,101185.62
2018-04-26T06:23:00.832Z,101186.05
2018-04-26T06:24:03.982Z,101190.89
2018-04-26T06:25:07.437Z,101185.62
2018-04-26T06:26:10.751Z,101190.95
2018-04-26T06:27:13.951Z,101187.80
2018-04-26T06:28:17.010Z,101206.38
2018-04-26T06:29:20.083Z,101195.29
2018-04-26T06:30:23.165Z,101202.81
2018-04-26T06:31:26.287Z,101203.29
2018-04-26T06:32:29.384Z,101198.95
2018-04-26T06:33:32.442Z,101207.08
2018-04-26T06:34:35.524Z,101203.23
2018-04-26T06:35:38.558Z,101207.77
2018-04-26T06:36:41.673Z,101206.16
2018-04-26T06:37:45.134Z,101212.95
2018-04-26T06:38:48.405Z,101209.09
2018-04-26T06:39:51.437Z,101209.09
2018-04-26T06:40:54.519Z,101209.91
2018-04-26T06:41:57.645Z,101201.91
2018-04-26T06:43:00.854Z,101213.01
2018-04-26T06:44:03.953Z,101209.48
2018-04-26T06:45:07.496Z,101208.25
2018-04-26T06:46:10.610Z,101210.61
2018-04-26T06:47:13.717Z,101207.72
2018-04-26T06:48:16.781Z,101209.17
2018-04-26T06:49:19.955Z,101213.80
2018-04-26T06:50:23.127Z,101210.34
2018-04-26T06:51:26.269Z,101218.02
2018-04-26T06:52:29.311Z,101213.65
2018-04-26T06:53:32.477Z,101222.07
2018-04-26T06:54:35.635Z,101226.44
2018-04-26T06:55:38.734Z,101228.05
2018-04-26T06:56:41.844Z,101226.51
2018-04-26T06:57:44.890Z,101229.91
2018-04-26T06:58:47.981Z,101223.94
2018-04-26T06:59:51.094Z,101232.37
2018-04-26T07:00:57.233Z,101232.67
2018-04-26T07:02:00.274Z,101231.25
2018-04-26T07:03:03.417Z,101224.83
2018-04-26T07:04:06.505Z,101234.38
2018-04-26T07:05:09.630Z,101229.69
2018-04-26T07:06:12.695Z,101224.39
2018-04-26T07:07:15.774Z,101234.16
2018-04-26T07:08:18.924Z,101241.41
2018-04-26T07:09:22.024Z,101234.95
2018-04-26T07:10:25.164Z,101239.17
2018-04-26T07:11:28.188Z,101241.23
2018-04-26T07:12:31.252Z,101241.52
2018-04-26T07:13:34.393Z,101234.78
2018-04-26T07:14:37.566Z,101230.14
2018-04-26T07:15:40.686Z,101234.94
2018-04-26T07:16:43.751Z,101232.12
2018-04-26T07:17:47.182Z,101246.13
2018-04-26T07:18:50.277Z,101239.73
2018-04-26T07:19:53.435Z,101245.38
2018-04-26T07:20:56.502Z,101244.47
2018-04-26T07:21:59.609Z,101242.22
2018-04-26T07:23:02.671Z,101237.04
2018-04-26T07:24:05.743Z,101238.95
2018-04-26T07:25:08.818Z,101247.53
2018-04-26T07:26:12.006Z,101245.80
2018-04-26T07:27:15.323Z,101244.98
2018-04-26T07:28:18.468Z,101246.95
2018-04-26T07:29:21.582Z,101249.72
2018-04-26T07:30:24.705Z,101252.44
2018-04-26T07:31:27.940Z,101246.48
2018-04-26T07:32:31.067Z,101245.91
2018-04-26T07:33:34.165Z,101243.66
2018-04-26T07:34:37.250Z,101241.78
2018-04-26T07:35:40.339Z,101247.70
2018-04-26T07:36:43.645Z,101249.45
2018-04-26T07:37:46.724Z,101248.56
2018-04-26T07:38:49.766Z,101243.40
2018-04-26T07:39:53.255Z,101249.31
2018-04-26T07:40:56.438Z,101245.35
2018-04-26T07:41:59.469Z,101250.94
2018-04-26T07:43:02.542Z,101254.23
2018-04-26T07:44:05.626Z,101249.16
2018-04-26T07:45:08.754Z,101248.45
2018-04-26T07:46:12.199Z,101252.06
2018-04-26T07:47:15.502Z,101251.09
2018-04-26T07:48:18.658Z,101250.50
2018-04-26T07:49:21.694Z,101246.31
2018-04-26T07:50:24.968Z,101252.19
2018-04-26T07:51:28.095Z,101248.32
2018-04-26T07:52:31.171Z,101254.66
2018-04-26T07:53:34.334Z,101249.02
2018-04-26T07:54:37.694Z,101248.61
2018-04-26T07:55:40.778Z,101254.17
2018-04-26T07:56:43.885Z,101260.43
2018-04-26T07:57:46.935Z,101256.27
2018-04-26T07:58:50.003Z,101263.52
2018-04-26T07:59:53.082Z,101264.20
2018-04-26T08:00:56.161Z,101257.03
2018-04-26T08:01:59.213Z,101260.55
2018-04-26T08:03:02.610Z,101266.69
2018-04-26T08:04:05.648Z,101262.03
2018-04-26T08:05:08.680Z,101263.72
2018-04-26T08:06:11.767Z,101261.90
2018-04-26T08:07:14.796Z,101254.98
2018-04-26T08:08:17.845Z,101254.14
2018-04-26T08:09:20.893Z,101255.58
2018-04-26T08:10:23.939Z,101251.64
2018-04-26T08:11:27.130Z,101256.86
2018-04-26T08:12:30.182Z,101257.55
2018-04-26T08:13:33.265Z,101256.64
2018-04-26T08:14:36.312Z,101260.81
2018-04-26T08:15:39.464Z,101253.27
2018-04-26T08:16:42.566Z,101255.45
2018-04-26T08:17:45.651Z,101253.53
2018-04-26T08:18:48.861Z,101257.06
2018-04-26T08:19:52.873Z,101257.42
2018-04-26T08:20:55.972Z,101254.03
2018-04-26T08:21:59.031Z,101254.39
2018-04-26T08:23:02.094Z,101254.16
2018-04-26T08:24:05.503Z,101258.86
2018-04-26T08:25:08.587Z,101256.52
2018-04-26T08:26:11.692Z,101258.95
2018-04-26T08:27:14.747Z,101264.48
2018-04-26T08:28:17.855Z,101270.87
2018-04-26T08:29:20.887Z,101276.20
2018-04-26T08:30:23.932Z,101274.92
2018-04-26T08:31:27.013Z,101276.23
2018-04-26T08:32:30.205Z,101276.48
2018-04-26T08:33:33.443Z,101274.95
2018-04-26T08:34:36.626Z,101271.95
2018-04-26T08:35:39.695Z,101273.38
2018-04-26T08:36:42.897Z,101276.12
2018-04-26T08:37:46.000Z,101275.14
2018-04-26T08:38:49.090Z,101275.86
2018-04-26T08:39:52.233Z,101288.14
2018-04-26T08:40:55.472Z,101295.58
2018-04-26T08:41:58.550Z,101301.30
2018-04-26T08:43:01.719Z,101289.73
2018-04-26T08:44:04.999Z,101293.12
2018-04-26T08:45:08.096Z,101299.78
2018-04-26T08:46:11.156Z,101306.56
2018-04-26T08:47:14.181Z,101305.80
2018-04-26T08:48:17.479Z,101302.36
2018-04-26T08:49:20.511Z,101297.65
2018-04-26T08:50:23.642Z,101306.58
2018-04-26T08:51:26.683Z,101306.17
2018-04-26T08:52:29.728Z,101312.36
2018-04-26T08:53:33.049Z,101313.55
2018-04-26T08:54:36.087Z,101306.79
2018-04-26T08:55:39.154Z,101306.65
2018-04-26T08:56:42.343Z,101307.72
2018-04-26T08:57:45.372Z,101306.66
2018-04-26T08:58:48.510Z,101306.03
2018-04-26T08:59:51.657Z,101307.07
2018-04-26T09:00:54.727Z,101307.23
2018-04-26T09:01:57.798Z,101300.73
2018-04-26T09:03:00.845Z,101295.48
2018-04-26T09:04:03.998Z,101307.08
2018-04-26T09:05:07.045Z,101312.86
2018-04-26T09:06:10.066Z,101301.80
2018-04-26T09:07:13.232Z,101298.91
2018-04-26T09:08:16.341Z,101308.64
2018-04-26T09:09:19.685Z,101305.95
2018-04-26T09:10:22.852Z,101307.94
2018-04-26T09:11:26.013Z,101308.83
2018-04-26T09:12:29.186Z,101307.45
2018-04-26T09:13:32.901Z,101309.91
2018-04-26T09:14:35.992Z,101307.72
2018-04-26T09:15:39.128Z,101317.00
2018-04-26T09:16:42.259Z,101307.55
2018-04-26T09:17:45.316Z,101305.93
2018-04-26T09:18:48.580Z,101309.98
2018-04-26T09:19:52.573Z,101313.28
2018-04-26T09:20:55.632Z,101315.44
2018-04-26T09:21:58.760Z,101315.93
2018-04-26T09:23:01.893Z,101308.26
2018-04-26T09:24:05.027Z,101309.73
2018-04-26T09:25:08.135Z,101309.05
2018-04-26T09:26:11.280Z,101306.59
2018-04-26T09:27:14.321Z,101314.33
2018-04-26T09:28:17.430Z,101315.18
2018-04-26T09:29:20.486Z,101328.50
2018-04-26T09:30:24.249Z,101320.60
2018-04-26T09:31:28.615Z,101318.74
2018-04-26T09:32:31.686Z,101316.75
2018-04-26T09:33:34.742Z,101318.77
2018-04-26T09:34:37.970Z,101328.41
2018-04-26T09:35:44.238Z,101324.21
2018-04-26T09:36:48.220Z,101329.33
2018-04-26T09:37:51.870Z,101323.02
2018-04-26T09:38:55.025Z,101317.30
2018-04-26T09:39:58.090Z,101325.39
2018-04-26T09:41:01.269Z,101321.07
2018-04-26T09:42:04.484Z,101326.98
2018-04-26T09:43:08.278Z,101325.90
2018-04-26T09:44:12.203Z,101322.66
2018-04-26T09:45:15.550Z,101327.66
2018-04-26T09:46:18.727Z,101323.19
2018-04-26T09:47:21.959Z,101323.96
2018-04-26T09:48:25.026Z,101322.44
2018-04-26T09:49:28.201Z,101328.59
2018-04-26T09:50:31.426Z,101323.22
2018-04-26T09:51:34.533Z,101326.02
2018-04-26T09:52:37.658Z,101329.21
2018-04-26T09:53:40.809Z,101327.67
2018-04-26T09:54:43.862Z,101333.52
2018-04-26T09:55:46.924Z,101327.05
2018-04-26T09:56:50.097Z,101334.88
2018-04-26T09:57:53.671Z,101335.12
2018-04-26T09:58:56.803Z,101329.56
2018-04-26T10:00:00.097Z,101330.55
2018-04-26T10:01:08.763Z,101319.76
2018-04-26T10:02:12.047Z,101319.69
2018-04-26T10:03:15.168Z,101314.77
2018-04-26T10:04:24.809Z,101315.17
2018-04-26T10:07:00.863Z,101323.83
2018-04-26T10:08:04.083Z,101320.34
2018-04-26T10:09:07.326Z,101316.94
2018-04-26T10:10:10.375Z,101318.14
2018-04-26T10:11:13.406Z,101321.43
2018-04-26T10:12:16.447Z,101314.91
2018-04-26T10:13:19.579Z,101320.20
2018-04-26T10:14:23.004Z,101316.17
2018-04-26T10:15:26.073Z,101337.14
2018-04-26T10:16:29.368Z,101321.61
2018-04-26T10:17:32.486Z,101321.26
2018-04-26T10:18:35.583Z,101325.78
2018-04-26T10:19:38.976Z,101322.84
2018-04-26T10:20:42.341Z,101330.77
2018-04-26T10:21:45.488Z,101323.88
2018-04-26T10:22:48.526Z,101335.17
2018-04-26T10:23:51.584Z,101337.92
2018-04-26T10:24:54.622Z,101332.84
2018-04-26T10:25:57.750Z,101329.50
2018-04-26T10:27:01.048Z,101331.80
2018-04-26T10:28:04.515Z,101324.79
2018-04-26T10:29:07.611Z,101324.84
2018-04-26T10:30:10.688Z,101331.23
2018-04-26T10:31:13.764Z,101328.80
2018-04-26T10:32:16.870Z,101331.42
2018-04-26T10:33:20.027Z,101336.53
2018-04-26T10:34:23.146Z,101333.07
2018-04-26T10:35:26.281Z,101338.50
2018-04-26T10:36:29.499Z,101335.08
2018-04-26T10:37:32.576Z,101332.81
2018-04-26T10:38:35.783Z,101330.98
2018-04-26T10:39:38.988Z,101331.97
2018-04-26T10:40:42.135Z,101336.72
2018-04-26T10:41:45.211Z,101339.19
2018-04-26T10:42:48.313Z,101330.11
2018-04-26T10:43:51.387Z,101338.03
2018-04-26T10:44:54.509Z,101341.52
2018-04-26T10:45:57.880Z,101333.95
2018-04-26T10:47:01.111Z,101339.33
2018-04-26T10:48:04.278Z,101345.48
2018-04-26T10:49:07.348Z,101344.81
2018-04-26T10:50:10.871Z,101344.03
2018-04-26T10:51:14.104Z,101345.47
2018-04-26T10:52:17.247Z,101342.56
2018-04-26T10:53:20.340Z,101340.97
2018-04-26T10:54:23.379Z,101337.19
2018-04-26T10:55:26.477Z,101340.91
2018-04-26T10:56:29.625Z,101341.22
2018-04-26T10:57:32.783Z,101342.80
2018-04-26T10:58:36.290Z,101336.03
2018-04-26T10:59:39.403Z,101332.84
2018-04-26T11:00:42.581Z,101334.28
2018-04-26T11:01:45.706Z,101328.70
2018-04-26T11:02:48.852Z,101334.98
2018-04-26T11:03:51.991Z,101326.31
2018-04-26T11:04:55.337Z,101331.76
2018-04-26T11:05:58.629Z,101328.37
2018-04-26T11:07:01.758Z,101330.24
2018-04-26T11:08:04.875Z,101326.16
2018-04-26T11:09:08.155Z,101327.85
2018-04-26T11:10:11.188Z,101321.43
2018-04-26T11:11:14.692Z,101328.37
2018-04-26T11:12:21.633Z,101336.38
2018-04-26T11:13:24.860Z,101330.30
2018-04-26T11:14:27.996Z,101330.69
2018-04-26T11:15:31.084Z,101331.36
2018-04-26T11:16:34.439Z,101334.64
2018-04-26T11:17:37.747Z,101332.95
2018-04-26T11:18:41.121Z,101326.31
2018-04-26T11:19:45.277Z,101332.27
2018-04-26T11:20:48.592Z,101335.45
2018-04-26T11:21:51.891Z,101334.25
2018-04-26T11:22:55.108Z,101341.55
2018-04-26T11:23:58.389Z,101338.33
2018-04-26T11:25:01.524Z,101331.41
2018-04-26T11:26:04.832Z,101331.76
2018-04-26T11:27:08.561Z,101333.45
2018-04-26T11:28:11.203Z,101330.53
2018-04-26T11:29:14.294Z,101332.97
2018-04-26T11:30:17.473Z,101322.21
2018-04-26T11:31:20.573Z,101331.90
2018-04-26T11:32:23.899Z,101329.36
2018-04-26T11:33:27.000Z,101328.42
2018-04-26T11:34:30.072Z,101333.75
2018-04-26T11:35:33.210Z,101333.20
2018-04-26T11:36:36.357Z,101330.20
2018-04-26T11:37:39.729Z,101327.86
2018-04-26T11:38:43.079Z,101330.41
2018-04-26T11:39:46.141Z,101322.35
2018-04-26T11:40:49.240Z,101323.34
2018-04-26T11:41:52.283Z,101321.81
2018-04-26T11:42:55.515Z,101328.24
2018-04-26T11:43:58.709Z,101322.48
2018-04-26T11:45:01.780Z,101329.09
2018-04-26T11:46:04.895Z,101327.45
2018-04-26T11:47:07.952Z,101324.42
2018-04-26T11:48:11.169Z,101319.30
2018-04-26T11:49:14.330Z,101323.39
2018-04-26T11:50:17.500Z,101321.27
2018-04-26T11:51:20.674Z,101317.17
2018-04-26T11:52:23.805Z,101322.80
2018-04-26T11:53:26.968Z,101324.77
2018-04-26T11:54:30.023Z,101324.67
2018-04-26T11:55:33.057Z,101319.62
2018-04-26T11:56:36.106Z,101329.27
2018-04-26T11:57:39.410Z,101324.67
2018-04-26T11:58:42.643Z,101328.63
2018-04-26T11:59:45.698Z,101314.96
2018-04-26T12:00:48.773Z,101329.41
2018-04-26T12:01:51.815Z,101331.22
2018-04-26T12:02:54.995Z,101336.70
2018-04-26T12:03:58.102Z,101339.81